< < Back
Terminal Aerodrome Forecast


Current Version              Previous Versions:   1  2  3  4  5  6  7  8  9  

Terminal Aerodrome Forecast

704
FTUS42 KMLB 230900 AAA
TAFDAB
TAF AMD
KDAB 230909Z 2309/2406 20003KT P6SM BKN003
     FM231400 VRB05KT P6SM SCT020 SCT250
     FM231800 10008KT P6SM VCTS SCT040CB SCT080 BKN250
     FM240000 VRB03KT P6SM SCT100 BKN250
     FM240300 VRB02KT P6SM SCT250=



Latest METAR

538
SAUS80 KWBC 231000 RRA
MTRDAB
METAR KDAB 230953Z 28003KT 1/2SM FG BKN002 23/23 A3005 RMK AO2 SLP175
BKN V OVC T02330233


USA.gov is the U.S. government's official web portal to all federal, state and local government web resources and services.